This is the latest recevied weather packets stored in our database for station/object WD7CGF. If no packets are shown the sender has not sent any weather packets the latest 10 day(s).
| Time | Temp. | Humidity | Pressure | Rain* | Wind** | Luminosity | Snow |
|---|---|---|---|---|---|---|---|
| 1777420714 | 15° C | 53% | 1016.8 hPa | 0 mm | - | - | - |
| 1777420102 | 15° C | 53% | 1016.8 hPa | 0 mm | - | - | - |
| 1777419509 | 15.56° C | 51% | 1016.8 hPa | 0 mm | - | - | - |
| 1777418922 | 15.56° C | 52% | 1016.8 hPa | 0 mm | - | - | - |
| 1777418307 | 15.56° C | 52% | 1016.8 hPa | 0 mm | - | - | - |
| 1777417711 | 15.56° C | 53% | 1016.7 hPa | 0 mm | - | - | - |
| 1777417102 | 15.56° C | 51% | 1016.9 hPa | 0 mm | - | - | - |
| 1777416508 | 15.56° C | 52% | 1016.9 hPa | 0 mm | - | - | - |
| 1777415915 | 15.56° C | 51% | 1017 hPa | 0 mm | - | - | - |
| 1777414711 | 15.56° C | 50% | 1017.1 hPa | 0 mm | - | - | - |
| 1777414117 | 15.56° C | 51% | 1017.1 hPa | 0 mm | - | - | - |
| 1777413505 | 16.11° C | 50% | 1017 hPa | 0 mm | - | - | - |
| 1777412913 | 16.67° C | 49% | 1017 hPa | 0 mm | - | - | - |
| 1777412321 | 16.11° C | 51% | 1017.1 hPa | 0 mm | - | - | - |
| 1777411708 | 15.56° C | 53% | 1017.2 hPa | 0 mm | - | - | - |
| 1777411112 | 15.56° C | 51% | 1017.2 hPa | 0 mm | - | - | - |
| 1777410519 | 15.56° C | 52% | 1017.1 hPa | 0 mm | - | - | - |
| 1777409906 | 16.11° C | 49% | 1017.1 hPa | 0 mm | - | - | - |
| 1777409312 | 16.11° C | 51% | 1017.1 hPa | 0 mm | - | - | - |
| 1777408701 | 16.11° C | 50% | 1017 hPa | 0 mm | - | - | - |
| 1777408108 | 16.11° C | 50% | 1017.2 hPa | 0 mm | - | - | - |
| 1777407513 | 16.11° C | 50% | 1017.2 hPa | 0 mm | - | - | - |
| 1777406914 | 15.56° C | 50% | 1017 hPa | 0 mm | - | - | - |
| 1777406320 | 16.11° C | 49% | 1017.2 hPa | 0 mm | - | - | - |
| 1777405706 | 16.11° C | 53% | 1017.2 hPa | 0 mm | - | - | - |
* Rain since midnight (hover to see other rain measurements)
** Current wind speed in m/s (hover to see current wind gust speed)